Coleman A. Young Municipal Airport Detroit US
ICAO: KDET
IATA: DET
Category: Medium
Scheduled Services: No

Elevation: 626 ft
TransAlt. 18000 ft.

Airport Communications:
APP/DEP:126.85
ATIS:124.875
GND:121.85
LANSING RDO:122.2
TWR:121.3
UNICOM:122.95

KDET Zoom In..

Runways:

(A) RW 07 length 3714 ft width 100 ft
---- / hdg 68

(B) RW 15 length 5090 ft width 100 ft
ILS 111.30 / hdg 148

(C) RW 25 length 3714 ft width 100 ft
---- / hdg 248

(D) RW 33 length 5090 ft width 100 ft
ILS 111.30 / hdg 328

Location; KDET
Day. 22 / Time. 04.21 Zulu
* Altimeter: 30.02
* Temperature: 02° c. 35.6°f.
* Wind from: 070° Speed 03 kn.
Dewpoint: 02° c.
Visibility: 1/2 Statute Miles.
Conditions: Light Rain.Conditions: Fog.

KDET 220421Z 07003KT 1/2SM -RA FG VV003 02/02 A3002 RMK AO2 RAB10 P0000 T00220022


Wind From 070°
Speed 03 kn.

jpsM music video
CHECK IT OUT

jpsM - It Moves..

 
jpsmedia.com for Web Design  worldairports.se 2018   terms of use